| time (UTC) | temp F | wind direction | speed MPH | gust MPH | rain 1hr in | rain 24hr in | rain mn in | humidity % | barometer mb |
| 20260503004548 | 49 | 270 | 0.0 | 0.0 | 0.00 | 0.67 | 0.00 | 99 | 1015.2 |
| 20260503003544 | 49 | 270 | 0.0 | 0.0 | 0.00 | 0.67 | 0.00 | 99 | 1015.2 |
| 20260503002534 | 49 | 270 | 0.0 | 0.0 | 0.00 | 0.67 | 0.00 | 99 | 1015.4 |
| 20260503001527 | 49 | 270 | 0.0 | 0.0 | 0.00 | 0.67 | 0.00 | 99 | 1015.6 |
| 20260502235513 | 49 | 270 | 0.0 | 0.0 | 0.00 | 0.67 | 0.00 | 99 | 1015.7 |
| 20260502234506 | 50 | 270 | 0.0 | 0.0 | 0.00 | 0.67 | 0.00 | 99 | 1015.9 |
| 20260502233503 | 50 | 270 | 0.0 | 0.0 | 0.00 | 0.67 | 0.00 | 99 | 1015.9 |
| 20260502231445 | 50 | 270 | 0.0 | 0.0 | 0.00 | 0.67 | 0.00 | 99 | 1015.8 |
| 20260502230438 | 50 | 270 | 0.0 | 0.0 | 0.00 | 0.67 | 0.00 | 99 | 1015.8 |
| 20260502225431 | 50 | 270 | 0.0 | 0.0 | 0.00 | 0.67 | 0.00 | 99 | 1015.8 |
| 20260502224424 | 50 | 270 | 0.0 | 0.0 | 0.00 | 0.67 | 0.00 | 99 | 1015.7 |
| 20260502223417 | 50 | 270 | 0.0 | 0.0 | 0.00 | 0.67 | 0.00 | 99 | 1015.6 |
| 20260502222410 | 50 | 270 | 0.0 | 0.0 | 0.00 | 0.67 | 0.00 | 99 | 1015.8 |
| 20260502221403 | 50 | 270 | 0.0 | 0.0 | 0.00 | 0.67 | 0.00 | 99 | 1015.6 |
| 20260502220356 | 50 | 270 | 0.0 | 0.0 | 0.00 | 0.67 | 0.00 | 99 | 1015.6 |
| 20260502215349 | 50 | 270 | 0.0 | 0.0 | 0.00 | 0.67 | 0.67 | 99 | 1015.8 |
| 20260502213337 | 50 | 270 | 0.0 | 0.0 | 0.00 | 0.67 | 0.67 | 99 | 1015.8 |
| 20260502212329 | 50 | 270 | 0.0 | 0.0 | 0.00 | 0.67 | 0.67 | 99 | 1015.9 |
| 20260502211323 | 51 | 270 | 0.0 | 0.0 | 0.00 | 0.67 | 0.67 | 99 | 1016.0 |
| 20260502210317 | 51 | 270 | 0.0 | 0.0 | 0.00 | 0.67 | 0.67 | 99 | 1015.9 |
| 20260502205309 | 50 | 270 | 0.0 | 0.0 | 0.00 | 0.67 | 0.67 | 99 | 1016.0 |
| 20260502204303 | 51 | 270 | 0.0 | 0.0 | 0.00 | 0.67 | 0.67 | 99 | 1015.8 |
| 20260502203255 | 51 | 270 | 0.0 | 0.0 | 0.00 | 0.67 | 0.67 | 99 | 1015.6 |
| 20260502202248 | 51 | 270 | 0.0 | 0.0 | 0.00 | 0.67 | 0.67 | 99 | 1015.5 |
| 20260502201243 | 51 | 270 | 0.0 | 0.0 | 0.00 | 0.67 | 0.67 | 99 | 1015.3 |
| 20260502200235 | 51 | 270 | 0.0 | 0.0 | 0.00 | 0.67 | 0.67 | 99 | 1015.0 |
| 20260502195228 | 51 | 270 | 0.0 | 0.0 | 0.00 | 0.67 | 0.67 | 99 | 1015.1 |
| 20260502194223 | 51 | 270 | 0.0 | 0.0 | 0.00 | 0.67 | 0.67 | 99 | 1014.8 |
| 20260502193215 | 51 | 270 | 0.0 | 0.0 | 0.00 | 0.67 | 0.67 | 99 | 1015.1 |
| 20260502192208 | 52 | 270 | 0.0 | 0.0 | 0.00 | 0.67 | 0.67 | 99 | 1015.0 |
| 20260502191203 | 52 | 270 | 0.0 | 0.0 | 0.02 | 0.67 | 0.67 | 99 | 1014.8 |
| 20260502190155 | 52 | 270 | 0.0 | 0.0 | 0.02 | 0.67 | 0.67 | 99 | 1014.3 |
| 20260502185149 | 52 | 270 | 0.0 | 0.0 | 0.02 | 0.67 | 0.67 | 99 | 1014.1 |
| 20260502182129 | 53 | 248 | 0.0 | 4.0 | 0.02 | 0.67 | 0.67 | 99 | 1014.2 |
| 20260502181223 | 53 | 225 | 0.0 | 13.0 | 0.00 | 0.65 | 0.65 | 96 | 1014.7 |
| 20260502180223 | 55 | 248 | 0.0 | 3.0 | 0.00 | 0.65 | 0.65 | 96 | 1014.6 |
| 20260502170135 | 56 | 270 | 0.0 | 21.0 | 0.02 | 0.65 | 0.65 | 99 | 1015.0 |
| 20260502164124 | 55 | 270 | 0.0 | 0.0 | 0.02 | 0.65 | 0.65 | 99 | 1015.1 |
| 20260502163224 | 56 | 270 | 0.0 | 0.0 | 0.00 | 0.63 | 0.63 | 99 | 1015.1 |
| 20260502162215 | 54 | 180 | 0.0 | 0.0 | 0.10 | 0.63 | 0.63 | 99 | 1015.1 |
| 20260502161208 | 53 | 180 | 0.0 | 0.0 | 0.14 | 0.63 | 0.63 | 99 | 1015.3 |
| 20260502160212 | 52 | 180 | 1.0 | 7.0 | 0.14 | 0.63 | 0.63 | 99 | 1015.5 |
| 20260502152240 | 53 | 270 | 8.0 | 21.0 | 0.12 | 0.61 | 0.61 | 99 | 1016.2 |
| 20260502151339 | 56 | 225 | 2.0 | 10.0 | 0.04 | 0.53 | 0.53 | 92 | 1016.0 |
| 20260502150438 | 57 | 225 | 0.0 | 9.0 | 0.00 | 0.49 | 0.49 | 89 | 1015.5 |
| 20260502130420 | 61 | 180 | 2.0 | 9.0 | 0.04 | 0.47 | 0.47 | 99 | 1016.7 |
| 20260502123357 | 53 | 113 | 3.0 | 6.0 | 0.08 | 0.47 | 0.47 | 99 | 1016.7 |
| 20260502122457 | 54 | 135 | 0.0 | 0.0 | 0.08 | 0.45 | 0.45 | 99 | 1018.1 |
| 20260502121556 | 54 | 113 | 0.0 | 0.0 | 0.08 | 0.43 | 0.43 | 99 | 1018.2 |
| 20260502120549 | 53 | 68 | 0.0 | 0.0 | 0.10 | 0.43 | 0.43 | 99 | 1018.1 |
| 20260502115543 | 52 | 90 | 0.0 | 0.0 | 0.12 | 0.43 | 0.43 | 99 | 1018.0 |
| 20260502113635 | 51 | 225 | 0.0 | 0.0 | 0.12 | 0.41 | 0.41 | 99 | 1019.1 |
| 20260502112732 | 52 | 225 | 0.0 | 3.0 | 0.10 | 0.39 | 0.39 | 99 | 1019.3 |
| 20260502111840 | 52 | 225 | 0.0 | 2.0 | 0.08 | 0.37 | 0.37 | 99 | 1019.4 |
| 20260502110932 | 52 | 225 | 0.0 | 0.0 | 0.06 | 0.35 | 0.35 | 99 | 1019.5 |
| 20260502110031 | 52 | 225 | 0.0 | 0.0 | 0.04 | 0.33 | 0.33 | 99 | 1019.5 |
| 20260502105130 | 52 | 225 | 0.0 | 0.0 | 0.06 | 0.31 | 0.31 | 99 | 1019.8 |
| 20260502104230 | 52 | 225 | 0.0 | 4.0 | 0.06 | 0.30 | 0.30 | 99 | 1019.5 |
| 20260502103224 | 52 | 225 | 0.0 | 2.0 | 0.08 | 0.30 | 0.30 | 99 | 1019.3 |
| 20260502102216 | 53 | 225 | 0.0 | 0.0 | 0.10 | 0.30 | 0.30 | 99 | 1019.0 |
| 20260502101209 | 52 | 225 | 0.0 | 0.0 | 0.28 | 0.30 | 0.30 | 99 | 1018.6 |
| 20260502100202 | 51 | 225 | 0.0 | 0.0 | 0.30 | 0.30 | 0.30 | 99 | 1018.7 |
| 20260502090654 | 54 | 180 | 0.0 | 6.0 | 0.02 | 0.02 | 0.02 | 93 | 1019.3 |
| 20260502070643 | 52 | 158 | 0.0 | 2.0 | 0.00 | 0.00 | 0.00 | 99 | 1019.3 |
| 20260502065632 | 52 | 158 | 0.0 | 3.0 | 0.00 | 0.00 | 0.00 | 99 | 1019.3 |
| 20260502064628 | 52 | 158 | 0.0 | 0.0 | 0.00 | 0.00 | 0.00 | 99 | 1019.3 |
| 20260502063622 | 52 | 180 | 0.0 | 2.0 | 0.00 | 0.00 | 0.00 | 99 | 1019.4 |
| 20260502062603 | 52 | 158 | 0.0 | 3.0 | 0.00 | 0.00 | 0.00 | 99 | 1019.2 |
| 20260502061556 | 52 | 158 | 0.0 | 4.0 | 0.00 | 0.00 | 0.00 | 99 | 1019.3 |
| 20260502055544 | 52 | 113 | 0.0 | 0.0 | 0.00 | 0.00 | 0.00 | 99 | 1019.2 |
| 20260502054535 | 52 | 135 | 0.0 | 1.0 | 0.00 | 0.00 | 0.00 | 99 | 1019.2 |
| 20260502053529 | 52 | 135 | 0.0 | 4.0 | 0.00 | 0.00 | 0.00 | 99 | 1019.2 |
| 20260502052522 | 52 | 180 | 0.0 | 3.0 | 0.00 | 0.00 | 0.00 | 99 | 1019.2 |
| 20260502051513 | 52 | 158 | 0.0 | 0.0 | 0.00 | 0.00 | 0.00 | 99 | 1019.2 |
| 20260502045502 | 52 | 158 | 0.0 | 0.0 | 0.00 | 0.00 | 0.00 | 99 | 1019.4 |
| 20260502043445 | 52 | 158 | 0.0 | 3.0 | 0.00 | 0.00 | 0.00 | 99 | 1019.3 |
| 20260502042438 | 52 | 158 | 0.0 | 0.0 | 0.00 | 0.00 | 0.00 | 99 | 1019.2 |
| 20260502041431 | 53 | 113 | 0.0 | 0.0 | 0.00 | 0.00 | 0.00 | 99 | 1019.1 |
| 20260502040424 | 53 | 135 | 0.0 | 0.0 | 0.00 | 0.00 | 0.00 | 99 | 1019.1 |
| 20260502035417 | 52 | 113 | 0.0 | 0.0 | 0.00 | 0.00 | 0.00 | 99 | 1019.1 |
| 20260502034410 | 52 | 90 | 0.0 | 0.0 | 0.00 | 0.00 | 0.00 | 99 | 1019.3 |
| 20260502033402 | 52 | 135 | 0.0 | 0.0 | 0.00 | 0.00 | 0.00 | 99 | 1019.5 |
| 20260502032354 | 52 | 135 | 0.0 | 0.0 | 0.00 | 0.00 | 0.00 | 99 | 1019.4 |
| 20260502031347 | 52 | 135 | 0.0 | 0.0 | 0.00 | 0.00 | 0.00 | 99 | 1019.3 |
| 20260502030342 | 53 | 135 | 0.0 | 0.0 | 0.00 | 0.00 | 0.00 | 99 | 1019.3 |
| 20260502025333 | 53 | 113 | 0.0 | 0.0 | 0.00 | 0.00 | 0.00 | 99 | 1019.4 |
| 20260502024326 | 53 | 68 | 0.0 | 0.0 | 0.00 | 0.00 | 0.00 | 99 | 1019.4 |
| 20260502023322 | 52 | 68 | 0.0 | 0.0 | 0.00 | 0.00 | 0.00 | 99 | 1019.3 |
| 20260502022322 | 52 | 68 | 0.0 | 1.0 | 0.00 | 0.00 | 0.00 | 99 | 1019.3 |
| 20260502021304 | 52 | 158 | 0.0 | 0.0 | 0.00 | 0.00 | 0.00 | 99 | 1019.5 |
| 20260502020257 | 52 | 158 | 0.0 | 0.0 | 0.00 | 0.00 | 0.00 | 99 | 1019.6 |
| 20260502015250 | 52 | 158 | 0.0 | 0.0 | 0.00 | 0.00 | 0.00 | 99 | 1019.6 |
| 20260502014243 | 51 | 158 | 0.0 | 0.0 | 0.00 | 0.00 | 0.00 | 99 | 1019.6 |
| 20260502013237 | 52 | 158 | 0.0 | 0.0 | 0.00 | 0.00 | 0.00 | 99 | 1019.7 |
| 20260502012231 | 52 | 158 | 0.0 | 0.0 | 0.00 | 0.00 | 0.00 | 99 | 1019.7 |
| 20260502011224 | 52 | 158 | 0.0 | 0.0 | 0.00 | 0.00 | 0.00 | 99 | 1019.9 |
| 20260502010222 | 52 | 158 | 0.0 | 0.0 | 0.00 | 0.00 | 0.00 | 99 | 1019.9 |